Time;durP1;ratioP1;P1;durP2;ratioP2;P2;SDS_P1;SDS_P2;PMS_P1;PMS_P2;Temp;Humidity;BMP_temperature;BMP_pressure;BME280_temperature;BME280_humidity;BME280_pressure;Samples;Min_cycle;Max_cycle;Signal;HPM_P1;HPM_P2
2021/12/13 06:55:24;;;;;;;18.90;5.63;;;4.70;99.90;;;;;;4963994;23;20052;-83
2021/12/13 06:57:56;;;;;;;17.50;5.03;;;4.70;99.90;;;;;;4897884;29;20036;-84
2021/12/13 07:00:22;;;;;;;13.97;4.77;;;4.70;99.90;;;;;;4896421;29;20097;-84
2021/12/13 07:03:10;;;;;;;16.03;5.87;;;4.60;99.90;;;;;;4898358;29;20033;-84
2021/12/13 07:05:42;;;;;;;15.13;5.37;;;4.70;99.90;;;;;;4879957;29;20643;-84
2021/12/13 07:08:27;;;;;;;12.43;5.67;;;4.60;99.90;;;;;;4888511;29;20136;-84
2021/12/13 07:10:56;;;;;;;13.87;5.80;;;4.70;99.90;;;;;;4895512;29;20033;-85
2021/12/13 07:13:27;;;;;;;11.83;5.20;;;4.70;99.90;;;;;;4904948;29;20084;-84
2021/12/13 07:16:01;;;;;;;13.70;5.43;;;4.70;99.90;;;;;;4897891;29;20021;-84
2021/12/13 07:18:48;;;;;;;13.50;4.97;;;4.70;99.90;;;;;;4897295;29;20651;-84
2021/12/13 07:21:25;;;;;;;11.23;5.30;;;4.70;99.90;;;;;;4897523;29;20032;-85
2021/12/13 07:23:52;;;;;;;11.70;4.90;;;4.70;99.90;;;;;;4904442;29;20040;-84
2021/12/13 07:26:52;;;;;;;13.37;5.90;;;4.70;99.90;;;;;;4916307;29;20456;-84
2021/12/13 07:29:27;;;;;;;13.40;5.50;;;4.70;99.90;;;;;;4885958;29;20040;-83
2021/12/13 07:32:14;;;;;;;12.53;5.53;;;4.80;99.90;;;;;;4898309;29;20039;-83
2021/12/13 07:34:53;;;;;;;12.17;5.90;;;4.80;99.90;;;;;;4898930;29;20028;-85
2021/12/13 07:37:38;;;;;;;15.13;5.87;;;4.80;99.90;;;;;;4909239;29;20056;-84
2021/12/13 07:40:16;;;;;;;11.60;4.93;;;4.80;99.90;;;;;;4878008;29;20473;-86
2021/12/13 07:42:58;;;;;;;13.70;5.50;;;4.90;99.90;;;;;;4894592;29;20080;-86
2021/12/13 07:45:31;;;;;;;9.63;4.93;;;4.80;99.90;;;;;;4899420;29;20036;-84
2021/12/13 07:48:03;;;;;;;12.53;5.23;;;4.80;99.90;;;;;;4901296;29;20032;-85
2021/12/13 07:50:28;;;;;;;9.63;5.33;;;4.80;99.90;;;;;;4901615;29;20032;-85
2021/12/13 07:53:01;;;;;;;9.83;5.33;;;4.80;99.90;;;;;;4896912;29;20088;-86
2021/12/13 07:55:29;;;;;;;12.73;5.63;;;4.90;99.90;;;;;;4901385;29;20071;-86
2021/12/13 07:58:02;;;;;;;15.73;6.07;;;4.90;99.90;;;;;;4907107;29;20116;-86
2021/12/13 08:00:40;;;;;;;10.33;5.00;;;4.90;99.90;;;;;;4903670;29;20049;-86
2021/12/13 08:03:10;;;;;;;11.93;5.60;;;5.00;99.90;;;;;;4900985;29;20063;-86
2021/12/13 08:05:40;;;;;;;11.07;5.50;;;5.10;99.90;;;;;;4902827;29;20095;-86
2021/12/13 08:08:14;;;;;;;16.07;5.40;;;5.00;99.90;;;;;;4909761;29;20048;-86
2021/12/13 08:10:42;;;;;;;9.47;5.10;;;5.00;99.90;;;;;;4902759;29;20029;-87
2021/12/13 08:13:13;;;;;;;14.43;5.67;;;5.00;99.90;;;;;;4919845;29;20110;-86
2021/12/13 08:15:47;;;;;;;12.20;5.33;;;5.00;99.90;;;;;;4907708;29;20029;-86
2021/12/13 08:18:40;;;;;;;11.40;4.90;;;5.10;99.90;;;;;;4904374;29;20088;-86
2021/12/13 08:21:32;;;;;;;8.77;4.83;;;5.10;99.90;;;;;;4895792;29;20056;-86
2021/12/13 08:24:01;;;;;;;11.03;5.20;;;5.20;99.90;;;;;;4889095;29;20052;-85
2021/12/13 08:26:40;;;;;;;15.03;5.53;;;5.20;99.90;;;;;;4901019;29;20049;-85
2021/12/13 08:29:16;;;;;;;11.80;5.20;;;5.20;99.90;;;;;;4898656;29;20056;-85
2021/12/13 08:31:47;;;;;;;12.90;5.13;;;5.30;99.90;;;;;;4902575;29;20021;-86
2021/12/13 08:34:23;;;;;;;11.27;5.30;;;5.30;99.90;;;;;;4918041;29;20035;-85
2021/12/13 08:36:50;;;;;;;14.13;5.60;;;5.30;99.90;;;;;;4901749;29;20037;-86
2021/12/13 08:39:19;;;;;;;13.77;5.80;;;5.40;99.90;;;;;;4897651;29;20028;-86
2021/12/13 08:41:55;;;;;;;12.57;5.40;;;5.40;99.90;;;;;;4896640;29;20446;-86
2021/12/13 08:44:24;;;;;;;17.00;6.47;;;5.40;99.90;;;;;;4892719;29;20036;-86
2021/12/13 08:46:55;;;;;;;16.70;5.33;;;5.40;99.90;;;;;;4895056;29;20035;-86
2021/12/13 08:49:34;;;;;;;10.35;5.25;;;5.50;99.90;;;;;;4911532;29;20088;-85
2021/12/13 08:52:14;;;;;;;15.97;5.10;;;5.50;99.90;;;;;;4896057;29;20438;-86
2021/12/13 08:54:45;;;;;;;14.57;5.40;;;5.50;99.90;;;;;;4895704;29;20113;-86
2021/12/13 08:57:28;;;;;;;14.07;4.97;;;5.50;99.90;;;;;;4896739;29;20026;-86
2021/12/13 08:59:55;;;;;;;13.27;5.50;;;5.50;99.90;;;;;;4895372;29;20039;-87
2021/12/13 09:02:25;;;;;;;12.73;4.90;;;5.60;99.90;;;;;;4891451;29;20036;-86
2021/12/13 09:05:14;;;;;;;11.13;4.60;;;5.60;99.90;;;;;;4891947;29;20029;-86
2021/12/13 09:08:00;;;;;;;12.57;5.20;;;5.50;99.90;;;;;;4892097;29;20029;-86
2021/12/13 09:10:50;;;;;;;13.80;5.03;;;5.60;99.90;;;;;;4880183;29;20166;-85
2021/12/13 09:13:31;;;;;;;11.80;5.20;;;5.60;99.90;;;;;;4894785;29;20025;-86
2021/12/13 09:15:58;;;;;;;13.33;5.77;;;5.60;99.90;;;;;;4896694;29;20126;-86
2021/12/13 09:18:24;;;;;;;13.33;5.40;;;5.60;99.90;;;;;;4894991;29;20032;-86
2021/12/13 09:20:53;;;;;;;16.13;5.43;;;5.70;99.90;;;;;;4891980;29;20378;-86
2021/12/13 09:23:29;;;;;;;14.43;6.57;;;5.70;99.90;;;;;;4883367;29;20028;-86
2021/12/13 09:26:16;;;;;;;13.50;5.73;;;5.70;99.90;;;;;;4915528;29;20511;-86
2021/12/13 09:28:53;;;;;;;11.43;6.17;;;5.70;99.90;;;;;;4906820;29;20128;-86
2021/12/13 09:31:28;;;;;;;17.57;5.93;;;5.70;99.90;;;;;;4894995;29;20756;-86
2021/12/13 09:33:58;;;;;;;27.10;6.80;;;5.80;99.90;;;;;;4894252;29;20746;-84
2021/12/13 09:36:31;;;;;;;13.23;6.13;;;5.80;99.90;;;;;;4895005;29;20536;-85
2021/12/13 09:38:58;;;;;;;14.07;6.07;;;5.80;99.90;;;;;;4894800;29;20163;-86
2021/12/13 09:41:46;;;;;;;20.43;7.47;;;5.80;99.90;;;;;;4896605;29;20096;-86
2021/12/13 09:44:12;;;;;;;15.37;6.73;;;5.80;99.90;;;;;;4894684;29;20517;-86
2021/12/13 09:46:46;;;;;;;16.70;6.90;;;5.80;99.90;;;;;;4894888;29;20096;-86
2021/12/13 09:49:20;;;;;;;19.43;6.00;;;5.80;99.90;;;;;;4895850;29;20100;-87
2021/12/13 09:51:58;;;;;;;20.13;6.00;;;5.80;99.90;;;;;;4895578;29;20457;-87
2021/12/13 09:54:30;;;;;;;13.90;6.33;;;5.90;99.90;;;;;;4895168;29;20095;-86
2021/12/13 09:57:00;;;;;;;17.33;7.03;;;6.00;99.90;;;;;;4893569;29;20040;-87
2021/12/13 09:59:33;;;;;;;16.07;6.33;;;6.00;99.90;;;;;;4893124;29;20116;-87
2021/12/13 10:02:01;;;;;;;17.83;6.77;;;6.00;99.90;;;;;;4886015;29;20029;-87
2021/12/13 10:04:49;;;;;;;16.67;6.67;;;6.10;99.90;;;;;;4894011;29;20033;-87
2021/12/13 10:07:31;;;;;;;14.37;5.90;;;6.10;99.90;;;;;;4891252;29;20259;-86
2021/12/13 10:10:04;;;;;;;15.85;6.22;;;6.20;99.90;;;;;;4877605;29;20037;-87
2021/12/13 10:12:45;;;;;;;17.60;5.47;;;6.30;99.90;;;;;;4894445;29;20035;-86
2021/12/13 10:15:18;;;;;;;12.93;5.87;;;6.30;99.90;;;;;;4894243;29;20577;-86
2021/12/13 10:17:47;;;;;;;12.23;5.33;;;6.40;99.90;;;;;;4894407;29;20033;-86
2021/12/13 10:20:21;;;;;;;14.30;6.50;;;6.50;99.90;;;;;;4891099;29;20111;-86
2021/12/13 10:22:48;;;;;;;14.17;5.70;;;6.60;99.90;;;;;;4891434;29;20511;-85
2021/12/13 10:25:26;;;;;;;13.27;5.70;;;6.60;99.90;;;;;;4913564;29;20035;-86
2021/12/13 10:27:53;;;;;;;12.57;6.37;;;6.70;99.90;;;;;;4914171;29;20028;-86
2021/12/13 10:30:23;;;;;;;9.60;4.83;;;6.80;99.90;;;;;;4893075;29;20055;-86
2021/12/13 10:32:49;;;;;;;10.00;4.50;;;6.80;99.90;;;;;;4876189;29;20033;-86
2021/12/13 10:35:21;;;;;;;13.63;5.27;;;6.80;99.90;;;;;;4892120;29;20481;-87
2021/12/13 10:37:51;;;;;;;11.82;4.90;;;6.80;99.90;;;;;;4895462;29;20069;-85
2021/12/13 10:40:46;;;;;;;13.43;5.30;;;6.90;99.90;;;;;;4896595;29;20076;-86
2021/12/13 10:43:26;;;;;;;10.60;5.20;;;6.90;99.90;;;;;;4908351;29;20036;-86
2021/12/13 10:46:02;;;;;;;17.43;5.93;;;7.00;99.90;;;;;;4896226;29;20033;-86
2021/12/13 10:48:34;;;;;;;9.83;4.37;;;7.00;99.90;;;;;;4894682;29;20492;-86
2021/12/13 10:51:08;;;;;;;15.30;5.17;;;7.10;99.90;;;;;;4895783;29;20099;-86
2021/12/13 10:53:36;;;;;;;11.60;4.60;;;7.10;99.90;;;;;;4895524;29;20059;-86
2021/12/13 10:56:12;;;;;;;9.33;4.33;;;7.20;99.90;;;;;;4895094;29;20036;-85
2021/12/13 10:58:43;;;;;;;13.40;4.60;;;7.20;99.90;;;;;;4909416;29;20062;-86
2021/12/13 11:01:21;;;;;;;8.67;3.77;;;7.20;99.90;;;;;;4893222;29;20035;-85
2021/12/13 11:03:51;;;;;;;8.37;3.70;;;7.20;99.90;;;;;;4893670;29;20036;-85
2021/12/13 11:06:19;;;;;;;9.07;4.10;;;7.30;99.90;;;;;;4918925;23;20062;-85
2021/12/13 11:08:46;;;;;;;11.53;4.67;;;7.30;99.90;;;;;;4918117;29;20460;-86
2021/12/13 11:11:21;;;;;;;10.10;4.27;;;7.30;99.90;;;;;;4917185;29;20324;-86
2021/12/13 11:13:54;;;;;;;9.63;3.90;;;7.30;99.90;;;;;;4915887;29;20054;-86
2021/12/13 11:16:35;;;;;;;13.63;5.37;;;7.40;99.90;;;;;;4915015;29;20027;-86
2021/12/13 11:19:11;;;;;;;9.33;4.63;;;7.30;99.90;;;;;;4919588;29;20012;-86
2021/12/13 11:21:40;;;;;;;9.20;4.80;;;7.30;99.90;;;;;;4917576;29;20476;-86
2021/12/13 11:24:09;;;;;;;11.37;5.30;;;7.30;99.90;;;;;;4912922;29;20028;-86
2021/12/13 11:26:39;;;;;;;9.77;4.97;;;7.30;99.90;;;;;;4919602;29;20059;-86
2021/12/13 11:29:07;;;;;;;9.07;3.97;;;7.40;99.90;;;;;;4929596;29;20048;-86
2021/12/13 11:31:52;;;;;;;8.17;4.50;;;7.40;99.90;;;;;;4932466;29;20036;-86
2021/12/13 11:34:48;;;;;;;11.40;4.67;;;7.50;99.90;;;;;;4926169;29;20043;-86
2021/12/13 11:37:45;;;;;;;8.77;4.03;;;7.50;99.90;;;;;;4920382;29;20025;-86
2021/12/13 11:40:32;;;;;;;9.77;4.20;;;7.60;99.90;;;;;;4914350;29;20024;-84
2021/12/13 11:43:43;;;;;;;8.57;4.00;;;7.60;99.90;;;;;;4913726;29;20028;-84
2021/12/13 11:46:41;;;;;;;11.23;4.57;;;7.60;99.90;;;;;;4915308;29;20486;-84
2021/12/13 11:49:13;;;;;;;9.77;4.67;;;7.70;99.90;;;;;;4914613;29;20029;-84
2021/12/13 11:52:16;;;;;;;11.00;4.30;;;7.60;99.90;;;;;;4917381;29;20315;-84
2021/12/13 11:54:59;;;;;;;7.23;4.20;;;7.70;99.90;;;;;;4914997;29;20040;-84
2021/12/13 11:57:46;;;;;;;7.70;3.63;;;7.70;99.90;;;;;;4934249;29;20024;-84
2021/12/13 12:00:37;;;;;;;8.40;4.53;;;7.80;99.90;;;;;;4936613;29;20028;-84
2021/12/13 12:03:40;;;;;;;8.27;3.87;;;7.90;99.90;;;;;;4923945;29;20033;-84
2021/12/13 12:06:53;;;;;;;5.97;3.10;;;8.00;99.90;;;;;;4906024;29;20036;-84
2021/12/13 12:09:22;;;;;;;7.47;3.47;;;8.00;99.90;;;;;;4932727;29;20055;-84
2021/12/13 12:11:58;;;;;;;6.53;3.47;;;8.00;99.90;;;;;;4920689;29;20035;-84
2021/12/13 12:14:28;;;;;;;7.47;2.90;;;8.00;99.90;;;;;;4917307;29;20047;-84
2021/12/13 12:16:57;;;;;;;5.90;2.73;;;8.00;99.90;;;;;;4916909;29;20036;-84
2021/12/13 12:19:30;;;;;;;7.13;3.50;;;8.00;99.90;;;;;;4918227;29;20111;-85
2021/12/13 12:22:20;;;;;;;9.83;3.90;;;8.00;99.90;;;;;;4908593;29;20043;-85
2021/12/13 12:24:55;;;;;;;7.10;3.30;;;8.00;99.90;;;;;;4915320;29;20091;-84
2021/12/13 12:27:29;;;;;;;7.63;3.63;;;8.00;99.90;;;;;;4916629;29;20504;-85
2021/12/13 12:30:00;;;;;;;6.87;3.30;;;8.00;99.90;;;;;;4916737;29;20032;-85
2021/12/13 12:32:32;;;;;;;7.07;3.40;;;8.10;99.90;;;;;;4914647;29;20028;-85
2021/12/13 12:35:04;;;;;;;7.50;3.30;;;8.10;99.90;;;;;;4916899;29;20058;-84
2021/12/13 12:37:37;;;;;;;;;;;8.10;99.90;;;;;;4914989;29;20177;-84
2021/12/13 12:40:13;;;;;;;7.33;3.47;;;8.10;99.90;;;;;;4920325;29;20276;-85
2021/12/13 12:42:43;;;;;;;9.03;3.67;;;8.10;99.90;;;;;;4913935;29;20119;-84
2021/12/13 12:45:28;;;;;;;6.87;3.37;;;8.10;99.90;;;;;;4911627;29;20023;-84
2021/12/13 12:48:13;;;;;;;6.60;3.13;;;8.10;99.90;;;;;;4913933;29;20028;-85
2021/12/13 12:50:43;;;;;;;6.17;2.40;;;8.10;99.90;;;;;;4908934;29;20029;-85
2021/12/13 12:53:29;;;;;;;7.10;2.90;;;8.00;99.90;;;;;;4912355;29;20115;-85
2021/12/13 12:56:06;;;;;;;7.37;3.37;;;7.90;99.90;;;;;;4915609;29;20028;-84
2021/12/13 12:59:00;;;;;;;6.57;3.27;;;7.90;99.90;;;;;;4918043;29;20504;-86
2021/12/13 13:01:53;;;;;;;6.27;2.90;;;7.90;99.90;;;;;;4898660;29;20071;-85
2021/12/13 13:04:21;;;;;;;6.60;3.03;;;7.90;99.90;;;;;;4898686;29;20125;-84
2021/12/13 13:06:52;;;;;;;5.93;3.00;;;7.90;99.90;;;;;;4913464;29;20127;-83
2021/12/13 13:09:18;;;;;;;8.53;2.97;;;7.80;99.90;;;;;;4914709;29;20016;-85
2021/12/13 13:11:50;;;;;;;8.00;2.97;;;7.80;99.90;;;;;;4898164;29;20029;-85
2021/12/13 13:14:22;;;;;;;7.82;2.85;;;7.70;99.90;;;;;;4903323;29;20589;-84
2021/12/13 13:16:52;;;;;;;5.90;3.07;;;7.70;99.90;;;;;;4913383;29;20020;-84
2021/12/13 13:19:25;;;;;;;5.53;2.90;;;7.70;99.90;;;;;;4913147;29;20526;-85
2021/12/13 13:21:51;;;;;;;7.03;2.57;;;7.60;99.90;;;;;;4911773;29;20028;-84
2021/12/13 13:24:18;;;;;;;5.67;3.07;;;7.60;99.90;;;;;;4916954;29;20024;-84
2021/12/13 13:26:44;;;;;;;6.53;3.17;;;7.60;99.90;;;;;;4913520;29;20505;-85
2021/12/13 13:29:15;;;;;;;5.67;2.70;;;7.60;99.90;;;;;;4911808;29;20035;-85
2021/12/13 13:31:57;;;;;;;8.10;3.30;;;7.60;99.90;;;;;;4910840;29;20033;-84
2021/12/13 13:34:52;;;;;;;7.90;3.50;;;7.60;99.90;;;;;;4915557;29;20123;-84
2021/12/13 13:37:19;;;;;;;4.53;2.60;;;7.70;99.90;;;;;;4912647;29;20090;-85
2021/12/13 13:40:13;;;;;;;6.53;2.60;;;7.70;99.90;;;;;;4913446;29;20210;-85
2021/12/13 13:42:48;;;;;;;5.97;2.43;;;7.70;99.90;;;;;;4905655;29;20051;-84
2021/12/13 13:45:25;;;;;;;5.53;2.53;;;7.70;99.90;;;;;;4914103;29;20115;-85
2021/12/13 13:47:54;;;;;;;4.33;2.20;;;7.70;99.90;;;;;;4913128;29;20060;-84
2021/12/13 13:50:34;;;;;;;4.80;2.30;;;7.80;99.90;;;;;;4911648;29;20036;-85
2021/12/13 13:53:04;;;;;;;5.97;2.30;;;7.80;99.90;;;;;;4907250;29;20386;-85
2021/12/13 13:55:41;;;;;;;5.23;2.50;;;8.00;99.90;;;;;;4914568;29;20032;-85
2021/12/13 13:58:17;;;;;;;5.27;2.80;;;7.80;99.90;;;;;;4913203;29;20024;-85
2021/12/13 14:00:52;;;;;;;5.20;2.60;;;7.80;99.90;;;;;;4908208;29;20366;-84
2021/12/13 14:03:18;;;;;;;7.47;3.00;;;7.80;99.90;;;;;;4894833;29;20035;-85
2021/12/13 14:05:46;;;;;;;7.93;3.53;;;7.80;99.90;;;;;;4908377;29;20037;-84
2021/12/13 14:08:23;;;;;;;7.90;3.83;;;7.80;99.90;;;;;;4910045;29;20028;-85
2021/12/13 14:10:50;;;;;;;9.70;3.80;;;7.80;99.90;;;;;;4913432;29;20053;-85
2021/12/13 14:13:17;;;;;;;7.73;3.80;;;7.80;99.90;;;;;;4909952;29;20496;-85
2021/12/13 14:15:47;;;;;;;7.33;3.93;;;7.70;99.90;;;;;;4912868;29;20111;-85
2021/12/13 14:18:21;;;;;;;9.30;4.03;;;7.80;99.90;;;;;;4912128;29;20480;-85
2021/12/13 14:20:55;;;;;;;7.40;3.60;;;7.70;99.90;;;;;;4913082;29;20031;-85
2021/12/13 14:23:28;;;;;;;8.00;2.90;;;7.70;99.90;;;;;;4914640;29;20042;-85
2021/12/13 14:26:05;;;;;;;6.97;3.27;;;7.70;99.90;;;;;;4909519;29;20028;-84
2021/12/13 14:28:55;;;;;;;7.53;3.47;;;7.70;99.90;;;;;;4910941;29;20436;-85
2021/12/13 14:31:26;;;;;;;8.43;3.93;;;7.60;99.90;;;;;;4909846;29;20483;-85
2021/12/13 14:34:07;;;;;;;7.80;3.70;;;7.60;99.90;;;;;;4911260;29;20060;-85
2021/12/13 14:36:37;;;;;;;8.73;3.73;;;7.60;99.90;;;;;;4898588;29;20053;-85
2021/12/13 14:39:23;;;;;;;7.77;3.57;;;7.60;99.90;;;;;;4909325;29;20084;-85
2021/12/13 14:42:03;;;;;;;5.93;2.50;;;7.50;99.90;;;;;;4909061;29;20052;-85
2021/12/13 14:44:40;;;;;;;4.77;1.77;;;7.60;99.90;;;;;;4903353;29;20096;-85
2021/12/13 14:47:19;;;;;;;3.23;1.40;;;7.60;99.90;;;;;;4901210;29;20206;-85
2021/12/13 14:50:11;;;;;;;4.33;1.90;;;7.50;99.90;;;;;;4899001;29;20092;-85
2021/12/13 14:52:53;;;;;;;3.20;1.10;;;7.40;99.90;;;;;;4888862;29;20519;-85
2021/12/13 14:55:30;;;;;;;1.75;0.60;;;7.40;99.90;;;;;;4913384;29;20024;-85
2021/12/13 14:58:00;;;;;;;4.00;1.10;;;7.40;99.90;;;;;;4911707;29;20028;-85
2021/12/13 15:00:36;;;;;;;2.90;1.23;;;7.30;99.90;;;;;;4911862;29;20130;-85
2021/12/13 15:03:10;;;;;;;2.70;1.00;;;7.40;99.90;;;;;;4903207;29;20028;-85
2021/12/13 15:05:44;;;;;;;2.97;1.13;;;7.30;99.90;;;;;;4916532;29;20040;-86
2021/12/13 15:08:16;;;;;;;2.37;0.90;;;7.20;99.90;;;;;;4913136;29;20028;-85
2021/12/13 15:10:52;;;;;;;;;;;7.20;99.90;;;;;;4903350;29;20647;-86
2021/12/13 15:13:22;;;;;;;2.07;1.00;;;7.20;99.90;;;;;;4897211;29;20443;-85
2021/12/13 15:16:02;;;;;;;3.33;0.90;;;7.20;99.90;;;;;;4904608;29;20144;-85
2021/12/13 15:18:35;;;;;;;2.07;0.80;;;7.20;99.90;;;;;;4898643;29;20036;-86
2021/12/13 15:21:13;;;;;;;2.43;0.93;;;7.20;99.90;;;;;;4898443;29;20378;-85
2021/12/13 15:23:40;;;;;;;2.00;0.90;;;7.10;99.90;;;;;;4899106;29;20025;-86
2021/12/13 15:26:32;;;;;;;3.20;1.37;;;7.10;99.90;;;;;;4898447;29;20112;-85
2021/12/13 15:29:05;;;;;;;3.60;1.35;;;7.10;99.90;;;;;;4898126;29;20047;-85
2021/12/13 15:31:40;;;;;;;2.47;1.23;;;7.10;99.90;;;;;;4898471;29;20036;-86
2021/12/13 15:34:15;;;;;;;3.03;1.40;;;7.10;99.90;;;;;;4912990;29;20384;-85
2021/12/13 15:36:41;;;;;;;2.27;1.10;;;7.10;99.90;;;;;;4901256;29;20028;-85
2021/12/13 15:39:15;;;;;;;4.20;1.40;;;7.00;99.90;;;;;;4898263;29;20052;-86
2021/12/13 15:41:45;;;;;;;2.70;1.00;;;7.00;99.90;;;;;;4898236;29;20029;-85
2021/12/13 15:44:12;;;;;;;3.67;1.50;;;7.00;99.90;;;;;;4895787;29;20100;-86
2021/12/13 15:46:45;;;;;;;3.20;1.37;;;7.10;99.90;;;;;;4897750;29;20029;-85
2021/12/13 15:49:35;;;;;;;4.07;1.40;;;7.00;99.90;;;;;;4899327;29;20044;-85
2021/12/13 15:52:11;;;;;;;3.23;1.40;;;7.10;99.90;;;;;;4899680;29;20032;-85
2021/12/13 15:55:04;;;;;;;2.90;1.50;;;7.00;99.90;;;;;;4899020;29;20114;-85
2021/12/13 15:57:33;;;;;;;3.08;1.40;;;7.00;99.90;;;;;;4903446;29;20127;-85
2021/12/13 16:00:05;;;;;;;4.60;2.50;;;7.00;99.90;;;;;;4913947;29;20500;-85
2021/12/13 16:02:43;;;;;;;5.63;2.53;;;7.10;99.90;;;;;;4915201;29;20036;-85
2021/12/13 16:05:12;;;;;;;4.40;2.20;;;7.00;99.90;;;;;;4908895;29;20043;-85
2021/12/13 16:07:40;;;;;;;6.10;2.87;;;6.90;99.90;;;;;;4916422;29;20032;-85
2021/12/13 16:10:13;;;;;;;5.47;2.87;;;6.90;99.90;;;;;;4912974;29;20392;-86
2021/12/13 16:12:43;;;;;;;4.70;2.30;;;6.90;99.90;;;;;;4900660;29;20032;-86
2021/12/13 16:15:26;;;;;;;4.03;2.03;;;7.00;99.90;;;;;;4914541;29;20028;-86
2021/12/13 16:17:58;;;;;;;4.78;2.35;;;6.90;99.90;;;;;;4909997;29;20017;-85
2021/12/13 16:20:25;;;;;;;4.43;2.28;;;7.00;99.90;;;;;;4897076;29;20040;-86
2021/12/13 16:23:13;;;;;;;4.77;2.57;;;6.90;99.90;;;;;;4909716;29;20031;-86
2021/12/13 16:25:47;;;;;;;4.93;2.40;;;6.90;99.90;;;;;;4910301;29;20035;-86
2021/12/13 16:28:17;;;;;;;5.00;2.50;;;6.90;99.90;;;;;;4898249;29;20087;-87
2021/12/13 16:31:01;;;;;;;4.37;2.30;;;6.90;99.90;;;;;;4907956;29;20016;-87
2021/12/13 16:33:40;;;;;;;4.67;2.27;;;6.90;99.90;;;;;;4901056;29;20033;-87
2021/12/13 16:36:28;;;;;;;5.73;2.67;;;6.90;99.90;;;;;;4902874;29;20024;-87
2021/12/13 16:39:14;;;;;;;6.33;2.90;;;6.90;99.90;;;;;;4901872;29;20039;-86
2021/12/13 16:41:42;;;;;;;5.83;2.70;;;6.90;99.90;;;;;;4904321;29;20039;-87
2021/12/13 16:44:13;;;;;;;5.60;3.07;;;6.80;99.90;;;;;;4905049;29;20066;-86
2021/12/13 16:46:41;;;;;;;6.60;3.70;;;6.90;99.90;;;;;;4902708;29;20047;-86
2021/12/13 16:49:17;;;;;;;6.70;3.10;;;6.90;99.90;;;;;;4912741;29;20115;-86
2021/12/13 16:51:48;;;;;;;6.87;3.33;;;6.90;99.90;;;;;;4912640;29;20557;-87
2021/12/13 16:54:27;;;;;;;5.97;3.20;;;6.80;99.90;;;;;;4902002;29;20036;-87
2021/12/13 16:57:04;;;;;;;8.70;3.43;;;6.80;99.90;;;;;;4905618;29;20056;-86
2021/12/13 16:59:38;;;;;;;6.83;3.33;;;6.80;99.90;;;;;;4910719;29;20099;-86
2021/12/13 17:02:05;;;;;;;6.93;3.37;;;6.80;99.90;;;;;;4908357;29;20087;-86
2021/12/13 17:04:40;;;;;;;6.47;2.63;;;6.80;99.90;;;;;;4907075;29;20103;-87
2021/12/13 17:07:16;;;;;;;6.30;3.00;;;6.80;99.90;;;;;;4922716;23;20051;-85
2021/12/13 17:10:00;;;;;;;9.43;3.90;;;6.70;99.90;;;;;;4904713;29;20059;-84
2021/12/13 17:12:30;;;;;;;8.30;2.97;;;6.80;99.90;;;;;;4902107;29;20103;-85
2021/12/13 17:15:05;;;;;;;6.57;3.03;;;6.70;99.90;;;;;;4904604;29;20016;-86
2021/12/13 17:17:37;;;;;;;6.87;3.53;;;6.70;99.90;;;;;;4902552;29;20100;-86
2021/12/13 17:20:26;;;;;;;7.97;3.50;;;6.70;99.90;;;;;;4910760;29;20032;-85
2021/12/13 17:22:52;;;;;;;7.00;3.47;;;6.70;99.90;;;;;;4911295;29;20568;-84
2021/12/13 17:25:25;;;;;;;6.80;3.50;;;6.70;99.90;;;;;;4910614;29;20043;-85
2021/12/13 17:27:57;;;;;;;7.27;3.67;;;6.70;99.90;;;;;;4905125;29;20028;-84
2021/12/13 17:30:28;;;;;;;;;;;6.70;99.90;;;;;;4914364;29;20326;-85
2021/12/13 17:32:57;;;;;;;7.20;3.90;;;6.70;99.90;;;;;;4909149;29;19911;-85
2021/12/13 17:35:25;;;;;;;7.63;3.90;;;6.70;99.90;;;;;;4915851;29;20112;-85
2021/12/13 17:38:22;;;;;;;7.37;3.57;;;6.70;99.90;;;;;;4917889;29;20085;-85
2021/12/13 17:40:51;;;;;;;6.87;4.00;;;6.60;99.90;;;;;;4898134;29;20048;-85
2021/12/13 17:43:23;;;;;;;7.53;4.37;;;6.70;99.90;;;;;;4900049;29;20140;-86
2021/12/13 17:45:56;;;;;;;7.85;4.25;;;6.70;99.90;;;;;;4900659;29;20032;-85
2021/12/13 17:48:37;;;;;;;7.97;4.57;;;6.70;99.90;;;;;;4901051;29;20060;-86
2021/12/13 17:51:06;;;;;;;9.70;4.80;;;6.80;99.90;;;;;;4917883;29;20531;-86
2021/12/13 17:53:39;;;;;;;8.93;4.90;;;6.80;99.90;;;;;;4919050;29;20043;-86
2021/12/13 17:56:18;;;;;;;8.13;4.20;;;6.80;99.90;;;;;;4913446;29;20059;-85
2021/12/13 17:59:00;;;;;;;8.77;4.53;;;6.80;99.90;;;;;;4914674;29;20032;-85
2021/12/13 18:01:33;;;;;;;;;;;6.80;99.90;;;;;;4907921;29;20122;-85
2021/12/13 18:04:02;;;;;;;;;;;6.80;99.90;;;;;;4919660;29;19985;-86
2021/12/13 18:06:55;;;;;;;13.53;4.70;;;6.90;99.90;;;;;;4922282;29;19915;-84
2021/12/13 18:09:40;;;;;;;10.13;5.07;;;6.80;99.90;;;;;;4911719;29;20074;-85
2021/12/13 18:12:15;;;;;;;9.73;5.20;;;6.80;99.90;;;;;;4906240;29;20032;-85
2021/12/13 18:14:41;;;;;;;9.00;4.90;;;6.80;99.90;;;;;;4911589;29;20444;-85
2021/12/13 18:17:15;;;;;;;10.50;5.20;;;6.80;99.90;;;;;;4914802;29;20032;-85
2021/12/13 18:20:05;;;;;;;10.53;5.67;;;6.80;99.90;;;;;;4918086;29;20067;-86
2021/12/13 18:22:36;;;;;;;10.13;5.57;;;6.90;99.90;;;;;;4914652;29;20111;-85
2021/12/13 18:25:30;;;;;;;10.53;5.13;;;6.80;99.90;;;;;;4908304;29;20043;-85
2021/12/13 18:28:11;;;;;;;9.70;4.47;;;6.80;99.90;;;;;;4909962;29;20024;-85
2021/12/13 18:30:47;;;;;;;7.77;3.83;;;6.80;99.90;;;;;;4903127;29;20044;-86
2021/12/13 18:33:27;;;;;;;7.40;4.20;;;6.80;99.90;;;;;;4917094;29;20020;-86
2021/12/13 18:35:55;;;;;;;10.03;3.93;;;6.80;99.90;;;;;;4905975;29;20517;-86
2021/12/13 18:38:36;;;;;;;8.53;3.70;;;6.70;99.90;;;;;;4922720;29;20043;-86
2021/12/13 18:41:08;;;;;;;6.00;2.57;;;6.60;99.90;;;;;;4919544;29;20016;-86
2021/12/13 18:44:04;;;;;;;6.03;2.57;;;6.50;99.90;;;;;;4913184;29;20184;-86
2021/12/13 18:46:35;;;;;;;6.67;2.83;;;6.50;99.90;;;;;;4903898;29;20036;-86
2021/12/13 18:49:04;;;;;;;6.77;2.83;;;6.50;99.90;;;;;;4909489;29;20473;-86
2021/12/13 18:51:43;;;;;;;5.63;2.43;;;6.40;99.90;;;;;;4913839;29;20064;-86
2021/12/13 18:54:12;;;;;;;4.27;2.03;;;6.50;99.90;;;;;;4907327;29;20024;-87
2021/12/13 18:56:38;;;;;;;5.00;2.10;;;6.40;99.90;;;;;;4910711;29;20020;-86
2021/12/13 18:59:15;;;;;;;4.20;1.90;;;6.40;99.90;;;;;;4908690;29;20024;-86
2021/12/13 19:01:41;;;;;;;4.40;1.80;;;6.40;99.90;;;;;;4903718;29;20492;-87
2021/12/13 19:04:14;;;;;;;4.53;2.10;;;6.40;99.90;;;;;;4903277;29;20024;-86
2021/12/13 19:06:47;;;;;;;3.73;1.73;;;6.40;99.90;;;;;;4913372;29;20076;-86
2021/12/13 19:09:28;;;;;;;3.60;1.60;;;6.40;99.90;;;;;;4908857;29;20151;-86
2021/12/13 19:12:06;;;;;;;4.13;1.63;;;6.30;99.90;;;;;;4913435;29;20024;-87
2021/12/13 19:14:36;;;;;;;4.43;1.60;;;6.30;99.90;;;;;;4906799;29;20029;-87
2021/12/13 19:17:11;;;;;;;4.73;2.03;;;6.30;99.90;;;;;;4909160;29;20044;-86
2021/12/13 19:19:44;;;;;;;5.90;1.90;;;6.30;99.90;;;;;;4913088;29;20098;-86
2021/12/13 19:22:29;;;;;;;3.67;1.77;;;6.10;99.90;;;;;;4911409;29;20031;-86
2021/12/13 19:25:17;;;;;;;3.03;1.60;;;6.30;99.90;;;;;;4917671;29;20031;-87
2021/12/13 19:28:00;;;;;;;3.77;2.00;;;6.20;99.90;;;;;;4902426;29;20029;-87
2021/12/13 19:30:32;;;;;;;4.17;1.97;;;6.20;99.90;;;;;;4902258;29;20104;-87
2021/12/13 19:33:11;;;;;;;5.63;2.15;;;6.30;99.90;;;;;;4913880;29;20024;-87
2021/12/13 19:35:50;;;;;;;4.77;1.70;;;6.20;99.90;;;;;;4901132;29;20382;-87
2021/12/13 19:38:21;;;;;;;4.20;1.67;;;6.20;99.90;;;;;;4913938;29;20033;-86
2021/12/13 19:40:56;;;;;;;4.27;2.13;;;6.20;99.90;;;;;;4905641;29;20067;-86
2021/12/13 19:43:27;;;;;;;4.70;2.37;;;6.20;99.90;;;;;;4903164;29;20024;-87
2021/12/13 19:45:59;;;;;;;6.93;2.20;;;6.20;99.90;;;;;;4904512;29;20035;-86
2021/12/13 19:48:28;;;;;;;;;;;6.20;99.90;;;;;;4906295;29;20048;-86
2021/12/13 19:50:58;;;;;;;5.90;2.53;;;6.20;99.90;;;;;;4902498;29;20042;-87
2021/12/13 19:53:41;;;;;;;8.27;2.97;;;6.20;99.90;;;;;;4905673;29;20021;-87
2021/12/13 19:56:25;;;;;;;7.13;2.70;;;6.20;99.90;;;;;;4900521;29;20024;-86
2021/12/13 19:58:56;;;;;;;6.67;2.87;;;6.20;99.90;;;;;;4899063;29;20032;-87
2021/12/13 20:01:25;;;;;;;5.13;2.47;;;6.20;99.90;;;;;;4899523;29;20145;-86
2021/12/13 20:04:26;;;;;;;6.00;3.00;;;6.10;99.90;;;;;;4902763;29;20028;-87
2021/12/13 20:06:59;;;;;;;6.23;3.37;;;6.10;99.90;;;;;;4872219;29;20079;-86
2021/12/13 20:09:49;;;;;;;7.00;3.10;;;6.10;99.90;;;;;;4909284;29;20032;-86
2021/12/13 20:12:45;;;;;;;5.67;2.70;;;6.10;99.90;;;;;;4912471;29;20484;-86
2021/12/13 20:15:28;;;;;;;7.10;3.83;;;6.10;99.90;;;;;;4901979;29;20072;-87
2021/12/13 20:18:17;;;;;;;7.07;3.17;;;6.10;99.90;;;;;;4915935;29;20059;-86
2021/12/13 20:20:55;;;;;;;6.87;3.40;;;6.00;99.90;;;;;;4910567;29;20027;-86
2021/12/13 20:23:38;;;;;;;7.13;3.20;;;6.00;99.90;;;;;;4909685;29;20032;-86
2021/12/13 20:26:09;;;;;;;9.98;3.10;;;6.00;99.90;;;;;;4905520;29;20024;-86
2021/12/13 20:29:02;;;;;;;5.87;3.63;;;6.00;99.90;;;;;;4906846;29;20489;-86
2021/12/13 20:31:43;;;;;;;8.30;3.27;;;5.90;99.90;;;;;;4910838;29;20024;-87
2021/12/13 20:34:26;;;;;;;9.13;3.60;;;6.00;99.90;;;;;;4921888;29;20021;-86
2021/12/13 20:37:15;;;;;;;6.87;3.63;;;5.90;99.90;;;;;;4922961;29;20048;-87